Le Goeree, Netherlands

7:26 AM CEST on September 01, 2015 (GMT +0200)
Goeree Overflakkee | | Change Station
CLOSE
Current Station
Personal Weather Station
Location: Ouddorp-Noord, ZUID-HOLLAND
Elevation: 4 ft
Nearby Weather Stations

Elev 4 ft 51.82 °N, 3.93 °E | Updated 4 minutes ago

Mostly Cloudy
Mostly Cloudy
61.6 °F
Feels Like 61.6 °F
N
8.0
Wind Variable Wind from NNW

Today
High -- | Low -- °F
--% Chance of Precip.
Yesterday
High -- | Low -- °F
Precip. -- in
6:56 AM 8:33 PM
Waning Gibbous, 91% visible
Pressure 29.89 in
Visibility 6.2 miles
Clouds Few 1000 ft
Scattered Clouds 2000 ft
Mostly Cloudy 3500 ft
Dew Point 57 °F
Humidity 86%
Rainfall 0.00 in
Snow Depth Not available.
UV 0.0 out of 12
Pollen Not available.
Air Quality Not available.
Flu Activity Not available.
METAR EHPG 010455Z AUTO 34017KT 290V020 9999 FEW010/// SCT020/// BKN035/// 17/12 Q1012
Pressure 29.89 in
Visibility 6.2 miles
Clouds Few 1000 ft
Scattered Clouds 2000 ft
Mostly Cloudy 3500 ft
Dew Point 57 °F
Humidity 86%
Rainfall 0.00 in
Snow Depth Not available.
UV 0.0 out of 12
Pollen Not available.
Air Quality Not available.
Flu Activity Not available.
METAR EHPG 010455Z AUTO 34017KT 290V020 9999 FEW010/// SCT020/// BKN035/// 17/12 Q1012

10-Day Weather Forecast

×

Almanac

Astronomy

Sep. 01, 2015 Rise Set
Actual Time
Civil Twilight
Nautical Twilight
Astronomical Twilight
Moon
Length of Visible Light
Length of Day
Tomorrow will be .
, % of the Moon is Illuminated

Today's Extremes

Country Highs Country Lows

Community

WunderPhotos

Upload Photos

1,851,481 photos uploaded!

WunderBlogs® & News

Nearby

Air Quality

  Air Quality AQ Index Pollutant
Not available.

Snow Depth

Station Depth Elevation

Earthquake Activity

City Distance Mag. Time & Date
Minimum magnitude displayed is 2.5.

Coastal Water Temperatures

Place Temperature

Stations

Nearby Weather Stations

Station Location Temp. Windchill Dew Point Humidity Wind Precip. Elev Updated Type